sensor_id;sensor_type;location;lat;lon;timestamp;P1;durP1;ratioP1;P2;durP2;ratioP2
76053;SDS011;64752;48.870;9.082;2023-04-24T00:02:14;1.95;;;0.93;;
76053;SDS011;64752;48.870;9.082;2023-04-24T00:04:40;2.25;;;0.73;;
76053;SDS011;64752;48.870;9.082;2023-04-24T00:07:06;1.63;;;0.60;;
76053;SDS011;64752;48.870;9.082;2023-04-24T00:09:32;2.30;;;0.80;;
76053;SDS011;64752;48.870;9.082;2023-04-24T00:11:57;2.08;;;0.88;;
76053;SDS011;64752;48.870;9.082;2023-04-24T00:14:22;2.40;;;0.70;;
76053;SDS011;64752;48.870;9.082;2023-04-24T00:16:48;1.48;;;0.75;;
76053;SDS011;64752;48.870;9.082;2023-04-24T00:19:13;2.47;;;0.90;;
76053;SDS011;64752;48.870;9.082;2023-04-24T00:21:38;1.23;;;0.63;;
76053;SDS011;64752;48.870;9.082;2023-04-24T00:24:03;3.85;;;0.82;;
76053;SDS011;64752;48.870;9.082;2023-04-24T00:26:29;1.42;;;1.00;;
76053;SDS011;64752;48.870;9.082;2023-04-24T00:28:54;3.28;;;1.05;;
76053;SDS011;64752;48.870;9.082;2023-04-24T00:31:19;1.50;;;0.53;;
76053;SDS011;64752;48.870;9.082;2023-04-24T00:33:44;1.00;;;0.70;;
76053;SDS011;64752;48.870;9.082;2023-04-24T00:36:09;3.03;;;0.82;;
76053;SDS011;64752;48.870;9.082;2023-04-24T00:38:35;3.35;;;0.98;;
76053;SDS011;64752;48.870;9.082;2023-04-24T00:41:00;2.07;;;0.80;;
76053;SDS011;64752;48.870;9.082;2023-04-24T00:43:25;1.17;;;0.73;;
76053;SDS011;64752;48.870;9.082;2023-04-24T00:45:50;1.92;;;1.23;;
76053;SDS011;64752;48.870;9.082;2023-04-24T00:48:16;2.13;;;0.90;;
76053;SDS011;64752;48.870;9.082;2023-04-24T00:50:41;1.90;;;0.68;;
76053;SDS011;64752;48.870;9.082;2023-04-24T00:53:06;1.52;;;0.70;;
76053;SDS011;64752;48.870;9.082;2023-04-24T00:55:32;1.77;;;0.73;;
76053;SDS011;64752;48.870;9.082;2023-04-24T00:57:57;1.40;;;0.80;;
76053;SDS011;64752;48.870;9.082;2023-04-24T01:00:22;1.52;;;0.60;;
76053;SDS011;64752;48.870;9.082;2023-04-24T01:02:48;3.30;;;0.75;;
76053;SDS011;64752;48.870;9.082;2023-04-24T01:05:13;1.77;;;0.70;;
76053;SDS011;64752;48.870;9.082;2023-04-24T01:07:41;2.22;;;0.90;;
76053;SDS011;64752;48.870;9.082;2023-04-24T01:10:09;2.45;;;0.70;;
76053;SDS011;64752;48.870;9.082;2023-04-24T01:12:34;1.52;;;0.60;;
76053;SDS011;64752;48.870;9.082;2023-04-24T01:14:59;1.60;;;0.73;;
76053;SDS011;64752;48.870;9.082;2023-04-24T01:17:25;1.85;;;0.85;;
76053;SDS011;64752;48.870;9.082;2023-04-24T01:19:50;1.85;;;0.65;;
76053;SDS011;64752;48.870;9.082;2023-04-24T01:22:18;4.07;;;0.70;;
76053;SDS011;64752;48.870;9.082;2023-04-24T01:24:43;1.93;;;0.60;;
76053;SDS011;64752;48.870;9.082;2023-04-24T01:27:09;2.65;;;0.80;;
76053;SDS011;64752;48.870;9.082;2023-04-24T01:29:35;2.67;;;0.70;;
76053;SDS011;64752;48.870;9.082;2023-04-24T01:32:00;1.30;;;0.68;;
76053;SDS011;64752;48.870;9.082;2023-04-24T01:34:25;3.00;;;0.75;;
76053;SDS011;64752;48.870;9.082;2023-04-24T01:36:51;3.40;;;0.80;;
76053;SDS011;64752;48.870;9.082;2023-04-24T01:39:16;0.95;;;0.63;;
76053;SDS011;64752;48.870;9.082;2023-04-24T01:41:41;3.22;;;1.05;;
76053;SDS011;64752;48.870;9.082;2023-04-24T01:44:07;1.13;;;0.80;;
76053;SDS011;64752;48.870;9.082;2023-04-24T01:46:32;1.33;;;0.75;;
76053;SDS011;64752;48.870;9.082;2023-04-24T01:48:59;1.95;;;0.88;;
76053;SDS011;64752;48.870;9.082;2023-04-24T01:51:25;1.02;;;0.70;;
76053;SDS011;64752;48.870;9.082;2023-04-24T01:53:50;3.72;;;1.25;;
76053;SDS011;64752;48.870;9.082;2023-04-24T01:56:16;2.72;;;0.85;;
76053;SDS011;64752;48.870;9.082;2023-04-24T01:58:41;1.20;;;0.80;;
76053;SDS011;64752;48.870;9.082;2023-04-24T02:01:07;3.45;;;0.80;;
76053;SDS011;64752;48.870;9.082;2023-04-24T02:03:33;3.65;;;0.77;;
76053;SDS011;64752;48.870;9.082;2023-04-24T02:05:58;2.37;;;1.00;;
76053;SDS011;64752;48.870;9.082;2023-04-24T02:08:23;2.28;;;0.85;;
76053;SDS011;64752;48.870;9.082;2023-04-24T02:10:49;1.92;;;0.73;;
76053;SDS011;64752;48.870;9.082;2023-04-24T02:13:14;2.65;;;0.90;;
76053;SDS011;64752;48.870;9.082;2023-04-24T02:15:39;3.53;;;0.80;;
76053;SDS011;64752;48.870;9.082;2023-04-24T02:18:04;1.77;;;0.70;;
76053;SDS011;64752;48.870;9.082;2023-04-24T02:20:31;2.80;;;0.80;;
76053;SDS011;64752;48.870;9.082;2023-04-24T02:22:59;2.35;;;0.93;;
76053;SDS011;64752;48.870;9.082;2023-04-24T02:25:24;3.22;;;0.77;;
76053;SDS011;64752;48.870;9.082;2023-04-24T02:27:49;2.80;;;1.00;;
76053;SDS011;64752;48.870;9.082;2023-04-24T02:30:14;3.50;;;0.80;;
76053;SDS011;64752;48.870;9.082;2023-04-24T02:32:40;2.00;;;0.70;;
76053;SDS011;64752;48.870;9.082;2023-04-24T02:35:05;2.05;;;0.95;;
76053;SDS011;64752;48.870;9.082;2023-04-24T02:37:30;4.22;;;1.30;;
76053;SDS011;64752;48.870;9.082;2023-04-24T02:39:57;1.77;;;0.90;;
76053;SDS011;64752;48.870;9.082;2023-04-24T02:42:22;3.30;;;1.03;;
76053;SDS011;64752;48.870;9.082;2023-04-24T02:44:47;2.77;;;0.80;;
76053;SDS011;64752;48.870;9.082;2023-04-24T02:47:16;1.30;;;0.85;;
76053;SDS011;64752;48.870;9.082;2023-04-24T02:49:41;2.47;;;1.17;;
76053;SDS011;64752;48.870;9.082;2023-04-24T02:52:06;2.30;;;0.82;;
76053;SDS011;64752;48.870;9.082;2023-04-24T02:54:32;2.20;;;0.70;;
76053;SDS011;64752;48.870;9.082;2023-04-24T02:56:57;2.50;;;1.00;;
76053;SDS011;64752;48.870;9.082;2023-04-24T02:59:22;2.35;;;0.90;;
76053;SDS011;64752;48.870;9.082;2023-04-24T03:01:47;1.75;;;0.77;;
76053;SDS011;64752;48.870;9.082;2023-04-24T03:04:12;1.20;;;0.80;;
76053;SDS011;64752;48.870;9.082;2023-04-24T03:06:38;1.08;;;1.00;;
76053;SDS011;64752;48.870;9.082;2023-04-24T03:09:03;3.83;;;1.48;;
76053;SDS011;64752;48.870;9.082;2023-04-24T03:11:29;2.25;;;1.05;;
76053;SDS011;64752;48.870;9.082;2023-04-24T03:13:54;1.80;;;0.98;;
76053;SDS011;64752;48.870;9.082;2023-04-24T03:16:19;1.55;;;0.88;;
76053;SDS011;64752;48.870;9.082;2023-04-24T03:18:45;4.38;;;1.35;;
76053;SDS011;64752;48.870;9.082;2023-04-24T03:21:10;3.83;;;1.20;;
76053;SDS011;64752;48.870;9.082;2023-04-24T03:23:36;1.98;;;0.90;;
76053;SDS011;64752;48.870;9.082;2023-04-24T03:26:01;1.52;;;1.08;;
76053;SDS011;64752;48.870;9.082;2023-04-24T03:28:27;2.97;;;1.30;;
76053;SDS011;64752;48.870;9.082;2023-04-24T03:30:52;4.20;;;1.40;;
76053;SDS011;64752;48.870;9.082;2023-04-24T03:33:17;4.85;;;1.30;;
76053;SDS011;64752;48.870;9.082;2023-04-24T03:35:43;2.50;;;1.10;;
76053;SDS011;64752;48.870;9.082;2023-04-24T03:38:08;1.02;;;0.73;;
76053;SDS011;64752;48.870;9.082;2023-04-24T03:40:33;2.17;;;1.00;;
76053;SDS011;64752;48.870;9.082;2023-04-24T03:42:58;1.20;;;0.82;;
76053;SDS011;64752;48.870;9.082;2023-04-24T03:45:24;2.65;;;1.00;;
76053;SDS011;64752;48.870;9.082;2023-04-24T03:47:49;3.67;;;1.30;;
76053;SDS011;64752;48.870;9.082;2023-04-24T03:50:15;2.00;;;0.95;;
76053;SDS011;64752;48.870;9.082;2023-04-24T03:52:40;1.67;;;1.00;;
76053;SDS011;64752;48.870;9.082;2023-04-24T03:55:05;1.67;;;1.00;;
76053;SDS011;64752;48.870;9.082;2023-04-24T03:57:31;1.77;;;0.90;;
76053;SDS011;64752;48.870;9.082;2023-04-24T03:59:56;3.00;;;1.05;;
76053;SDS011;64752;48.870;9.082;2023-04-24T04:02:22;1.60;;;1.00;;
76053;SDS011;64752;48.870;9.082;2023-04-24T04:04:47;1.25;;;0.77;;
76053;SDS011;64752;48.870;9.082;2023-04-24T04:07:12;3.83;;;1.17;;
76053;SDS011;64752;48.870;9.082;2023-04-24T04:09:38;2.92;;;1.10;;
76053;SDS011;64752;48.870;9.082;2023-04-24T04:12:03;4.22;;;1.15;;
76053;SDS011;64752;48.870;9.082;2023-04-24T04:14:28;4.03;;;1.27;;
76053;SDS011;64752;48.870;9.082;2023-04-24T04:16:53;6.93;;;1.80;;
76053;SDS011;64752;48.870;9.082;2023-04-24T04:19:19;2.83;;;1.20;;
76053;SDS011;64752;48.870;9.082;2023-04-24T04:21:44;6.15;;;1.10;;
76053;SDS011;64752;48.870;9.082;2023-04-24T04:24:10;3.40;;;1.10;;
76053;SDS011;64752;48.870;9.082;2023-04-24T04:26:36;1.52;;;0.98;;
76053;SDS011;64752;48.870;9.082;2023-04-24T04:29:02;2.58;;;1.23;;
76053;SDS011;64752;48.870;9.082;2023-04-24T04:31:28;2.35;;;1.20;;
76053;SDS011;64752;48.870;9.082;2023-04-24T04:33:54;3.92;;;1.58;;
76053;SDS011;64752;48.870;9.082;2023-04-24T04:36:19;4.50;;;1.80;;
76053;SDS011;64752;48.870;9.082;2023-04-24T04:38:44;6.00;;;1.75;;
76053;SDS011;64752;48.870;9.082;2023-04-24T04:41:10;3.22;;;1.48;;
76053;SDS011;64752;48.870;9.082;2023-04-24T04:43:35;3.35;;;1.23;;
76053;SDS011;64752;48.870;9.082;2023-04-24T04:46:01;2.55;;;1.25;;
76053;SDS011;64752;48.870;9.082;2023-04-24T04:48:28;6.85;;;1.40;;
76053;SDS011;64752;48.870;9.082;2023-04-24T04:50:53;1.85;;;1.38;;
76053;SDS011;64752;48.870;9.082;2023-04-24T04:53:19;3.28;;;1.45;;
76053;SDS011;64752;48.870;9.082;2023-04-24T04:55:44;4.22;;;1.30;;
76053;SDS011;64752;48.870;9.082;2023-04-24T04:58:09;2.58;;;1.23;;
76053;SDS011;64752;48.870;9.082;2023-04-24T05:00:35;3.75;;;1.30;;
76053;SDS011;64752;48.870;9.082;2023-04-24T05:03:02;3.53;;;1.58;;
76053;SDS011;64752;48.870;9.082;2023-04-24T05:05:28;3.17;;;1.40;;
76053;SDS011;64752;48.870;9.082;2023-04-24T05:07:53;3.55;;;1.45;;
76053;SDS011;64752;48.870;9.082;2023-04-24T05:10:18;2.88;;;1.60;;
76053;SDS011;64752;48.870;9.082;2023-04-24T05:12:44;5.32;;;1.80;;
76053;SDS011;64752;48.870;9.082;2023-04-24T05:15:09;5.03;;;1.70;;
76053;SDS011;64752;48.870;9.082;2023-04-24T05:17:35;2.60;;;1.50;;
76053;SDS011;64752;48.870;9.082;2023-04-24T05:20:00;4.45;;;2.03;;
76053;SDS011;64752;48.870;9.082;2023-04-24T05:22:25;2.33;;;1.38;;
76053;SDS011;64752;48.870;9.082;2023-04-24T05:24:50;3.80;;;2.05;;
76053;SDS011;64752;48.870;9.082;2023-04-24T05:27:16;6.05;;;1.98;;
76053;SDS011;64752;48.870;9.082;2023-04-24T05:29:41;11.70;;;2.15;;
76053;SDS011;64752;48.870;9.082;2023-04-24T05:32:06;9.90;;;2.17;;
76053;SDS011;64752;48.870;9.082;2023-04-24T05:34:32;11.23;;;3.03;;
76053;SDS011;64752;48.870;9.082;2023-04-24T05:36:57;3.05;;;1.65;;
76053;SDS011;64752;48.870;9.082;2023-04-24T05:39:22;3.25;;;1.55;;
76053;SDS011;64752;48.870;9.082;2023-04-24T05:44:15;4.00;;;2.00;;
76053;SDS011;64752;48.870;9.082;2023-04-24T05:46:40;2.92;;;1.70;;
76053;SDS011;64752;48.870;9.082;2023-04-24T05:49:05;1.77;;;1.55;;
76053;SDS011;64752;48.870;9.082;2023-04-24T05:51:31;1.95;;;1.50;;
76053;SDS011;64752;48.870;9.082;2023-04-24T05:53:56;1.85;;;1.50;;
76053;SDS011;64752;48.870;9.082;2023-04-24T05:56:22;2.85;;;1.40;;
76053;SDS011;64752;48.870;9.082;2023-04-24T05:58:48;1.40;;;1.25;;
76053;SDS011;64752;48.870;9.082;2023-04-24T06:01:13;2.08;;;1.35;;
76053;SDS011;64752;48.870;9.082;2023-04-24T06:03:39;4.50;;;1.70;;
76053;SDS011;64752;48.870;9.082;2023-04-24T06:06:05;2.75;;;1.67;;
76053;SDS011;64752;48.870;9.082;2023-04-24T06:08:31;4.03;;;1.40;;
76053;SDS011;64752;48.870;9.082;2023-04-24T06:10:56;2.63;;;1.55;;
76053;SDS011;64752;48.870;9.082;2023-04-24T06:13:21;2.03;;;1.30;;
76053;SDS011;64752;48.870;9.082;2023-04-24T06:15:46;3.33;;;1.30;;
76053;SDS011;64752;48.870;9.082;2023-04-24T06:18:11;1.92;;;1.33;;
76053;SDS011;64752;48.870;9.082;2023-04-24T06:20:37;2.47;;;1.30;;
76053;SDS011;64752;48.870;9.082;2023-04-24T06:23:02;2.95;;;1.30;;
76053;SDS011;64752;48.870;9.082;2023-04-24T06:25:28;2.40;;;1.40;;
76053;SDS011;64752;48.870;9.082;2023-04-24T06:27:53;1.50;;;1.00;;
76053;SDS011;64752;48.870;9.082;2023-04-24T06:30:19;2.43;;;1.10;;
76053;SDS011;64752;48.870;9.082;2023-04-24T06:32:44;1.45;;;1.10;;
76053;SDS011;64752;48.870;9.082;2023-04-24T06:35:10;2.08;;;1.20;;
76053;SDS011;64752;48.870;9.082;2023-04-24T06:37:36;3.45;;;1.20;;
76053;SDS011;64752;48.870;9.082;2023-04-24T06:40:02;2.28;;;1.30;;
76053;SDS011;64752;48.870;9.082;2023-04-24T06:42:27;2.97;;;1.30;;
76053;SDS011;64752;48.870;9.082;2023-04-24T06:44:52;4.15;;;1.38;;
76053;SDS011;64752;48.870;9.082;2023-04-24T06:47:17;4.72;;;1.33;;
76053;SDS011;64752;48.870;9.082;2023-04-24T06:49:43;4.13;;;1.60;;
76053;SDS011;64752;48.870;9.082;2023-04-24T06:52:08;2.17;;;1.60;;
76053;SDS011;64752;48.870;9.082;2023-04-24T06:54:34;2.33;;;1.60;;
76053;SDS011;64752;48.870;9.082;2023-04-24T06:57:00;2.13;;;1.42;;
76053;SDS011;64752;48.870;9.082;2023-04-24T06:59:28;3.78;;;1.80;;
76053;SDS011;64752;48.870;9.082;2023-04-24T07:01:53;2.60;;;1.10;;
76053;SDS011;64752;48.870;9.082;2023-04-24T07:04:18;2.47;;;1.53;;
76053;SDS011;64752;48.870;9.082;2023-04-24T07:06:47;3.63;;;1.37;;
76053;SDS011;64752;48.870;9.082;2023-04-24T07:09:12;4.63;;;1.40;;
76053;SDS011;64752;48.870;9.082;2023-04-24T07:11:39;2.22;;;1.23;;
76053;SDS011;64752;48.870;9.082;2023-04-24T07:14:05;2.03;;;1.20;;
76053;SDS011;64752;48.870;9.082;2023-04-24T07:16:31;1.65;;;1.30;;
76053;SDS011;64752;48.870;9.082;2023-04-24T07:18:56;2.47;;;1.38;;
76053;SDS011;64752;48.870;9.082;2023-04-24T07:21:21;3.17;;;1.50;;
76053;SDS011;64752;48.870;9.082;2023-04-24T07:23:46;1.60;;;1.20;;
76053;SDS011;64752;48.870;9.082;2023-04-24T07:26:12;2.63;;;1.37;;
76053;SDS011;64752;48.870;9.082;2023-04-24T07:28:37;4.32;;;1.35;;
76053;SDS011;64752;48.870;9.082;2023-04-24T07:31:02;4.43;;;1.23;;
76053;SDS011;64752;48.870;9.082;2023-04-24T07:33:27;1.20;;;1.07;;
76053;SDS011;64752;48.870;9.082;2023-04-24T07:35:53;1.40;;;1.00;;
76053;SDS011;64752;48.870;9.082;2023-04-24T07:38:18;3.58;;;1.30;;
76053;SDS011;64752;48.870;9.082;2023-04-24T07:40:47;3.42;;;1.20;;
76053;SDS011;64752;48.870;9.082;2023-04-24T07:43:12;1.60;;;1.17;;
76053;SDS011;64752;48.870;9.082;2023-04-24T07:45:38;3.80;;;1.23;;
76053;SDS011;64752;48.870;9.082;2023-04-24T07:48:04;4.43;;;1.40;;
76053;SDS011;64752;48.870;9.082;2023-04-24T07:50:29;1.33;;;1.23;;
76053;SDS011;64752;48.870;9.082;2023-04-24T07:52:55;2.83;;;1.20;;
76053;SDS011;64752;48.870;9.082;2023-04-24T07:55:20;1.23;;;1.02;;
76053;SDS011;64752;48.870;9.082;2023-04-24T07:57:45;1.77;;;1.20;;
76053;SDS011;64752;48.870;9.082;2023-04-24T08:00:11;1.47;;;1.10;;
76053;SDS011;64752;48.870;9.082;2023-04-24T08:02:36;1.52;;;1.02;;
76053;SDS011;64752;48.870;9.082;2023-04-24T08:05:01;2.50;;;1.20;;
76053;SDS011;64752;48.870;9.082;2023-04-24T08:07:28;1.70;;;1.30;;
76053;SDS011;64752;48.870;9.082;2023-04-24T08:09:53;1.80;;;1.23;;
76053;SDS011;64752;48.870;9.082;2023-04-24T08:12:18;2.50;;;1.30;;
76053;SDS011;64752;48.870;9.082;2023-04-24T08:14:44;3.92;;;1.27;;
76053;SDS011;64752;48.870;9.082;2023-04-24T08:17:09;1.73;;;1.40;;
76053;SDS011;64752;48.870;9.082;2023-04-24T08:19:34;1.70;;;1.30;;
76053;SDS011;64752;48.870;9.082;2023-04-24T08:21:59;4.28;;;1.60;;
76053;SDS011;64752;48.870;9.082;2023-04-24T08:24:25;1.55;;;1.13;;
76053;SDS011;64752;48.870;9.082;2023-04-24T08:26:50;2.57;;;1.03;;
76053;SDS011;64752;48.870;9.082;2023-04-24T08:29:16;2.13;;;0.90;;
76053;SDS011;64752;48.870;9.082;2023-04-24T08:31:41;3.22;;;1.23;;
76053;SDS011;64752;48.870;9.082;2023-04-24T08:34:06;3.17;;;1.10;;
76053;SDS011;64752;48.870;9.082;2023-04-24T08:36:32;2.80;;;1.47;;
76053;SDS011;64752;48.870;9.082;2023-04-24T08:38:57;1.67;;;1.10;;
76053;SDS011;64752;48.870;9.082;2023-04-24T08:41:22;4.33;;;1.13;;
76053;SDS011;64752;48.870;9.082;2023-04-24T08:43:51;2.88;;;0.93;;
76053;SDS011;64752;48.870;9.082;2023-04-24T08:46:16;2.33;;;0.85;;
76053;SDS011;64752;48.870;9.082;2023-04-24T08:48:41;1.80;;;1.30;;
76053;SDS011;64752;48.870;9.082;2023-04-24T08:51:07;2.22;;;1.13;;
76053;SDS011;64752;48.870;9.082;2023-04-24T08:53:33;5.72;;;1.20;;
76053;SDS011;64752;48.870;9.082;2023-04-24T08:55:58;2.60;;;0.80;;
76053;SDS011;64752;48.870;9.082;2023-04-24T08:58:26;4.78;;;1.10;;
76053;SDS011;64752;48.870;9.082;2023-04-24T09:00:52;2.92;;;0.80;;
76053;SDS011;64752;48.870;9.082;2023-04-24T09:03:19;2.45;;;0.90;;
76053;SDS011;64752;48.870;9.082;2023-04-24T09:05:46;2.20;;;1.00;;
76053;SDS011;64752;48.870;9.082;2023-04-24T09:08:12;1.88;;;1.00;;
76053;SDS011;64752;48.870;9.082;2023-04-24T09:10:38;1.55;;;0.95;;
76053;SDS011;64752;48.870;9.082;2023-04-24T09:13:04;2.63;;;0.97;;
76053;SDS011;64752;48.870;9.082;2023-04-24T09:15:30;2.15;;;0.70;;
76053;SDS011;64752;48.870;9.082;2023-04-24T09:17:55;1.83;;;0.73;;
76053;SDS011;64752;48.870;9.082;2023-04-24T09:20:20;1.33;;;0.60;;
76053;SDS011;64752;48.870;9.082;2023-04-24T09:22:45;3.03;;;0.80;;
76053;SDS011;64752;48.870;9.082;2023-04-24T09:25:11;1.83;;;0.77;;
76053;SDS011;64752;48.870;9.082;2023-04-24T09:27:41;2.25;;;0.85;;
76053;SDS011;64752;48.870;9.082;2023-04-24T09:30:06;1.10;;;1.00;;
76053;SDS011;64752;48.870;9.082;2023-04-24T09:32:32;2.80;;;1.10;;
76053;SDS011;64752;48.870;9.082;2023-04-24T09:35:14;1.57;;;0.80;;
76053;SDS011;64752;48.870;9.082;2023-04-24T09:37:46;1.42;;;0.90;;
76053;SDS011;64752;48.870;9.082;2023-04-24T09:40:12;0.80;;;0.80;;
76053;SDS011;64752;48.870;9.082;2023-04-24T09:42:38;3.08;;;1.05;;
76053;SDS011;64752;48.870;9.082;2023-04-24T09:45:04;3.00;;;1.00;;
76053;SDS011;64752;48.870;9.082;2023-04-24T09:47:36;1.90;;;1.13;;
76053;SDS011;64752;48.870;9.082;2023-04-24T09:50:08;2.97;;;0.80;;
76053;SDS011;64752;48.870;9.082;2023-04-24T09:52:34;3.90;;;0.90;;
76053;SDS011;64752;48.870;9.082;2023-04-24T09:54:59;3.42;;;0.95;;
76053;SDS011;64752;48.870;9.082;2023-04-24T09:57:24;1.60;;;1.00;;
76053;SDS011;64752;48.870;9.082;2023-04-24T09:59:49;2.67;;;1.00;;
76053;SDS011;64752;48.870;9.082;2023-04-24T10:02:19;2.70;;;1.30;;
76053;SDS011;64752;48.870;9.082;2023-04-24T10:04:53;1.60;;;1.15;;
76053;SDS011;64752;48.870;9.082;2023-04-24T10:07:20;2.22;;;1.02;;
76053;SDS011;64752;48.870;9.082;2023-04-24T10:09:45;1.10;;;0.83;;
76053;SDS011;64752;48.870;9.082;2023-04-24T10:12:11;4.07;;;1.13;;
76053;SDS011;64752;48.870;9.082;2023-04-24T10:14:36;1.50;;;0.90;;
76053;SDS011;64752;48.870;9.082;2023-04-24T10:17:01;4.03;;;1.10;;
76053;SDS011;64752;48.870;9.082;2023-04-24T10:19:27;2.47;;;0.65;;
76053;SDS011;64752;48.870;9.082;2023-04-24T10:21:54;3.33;;;1.17;;
76053;SDS011;64752;48.870;9.082;2023-04-24T10:24:21;1.83;;;1.10;;
76053;SDS011;64752;48.870;9.082;2023-04-24T10:26:46;2.67;;;1.02;;
76053;SDS011;64752;48.870;9.082;2023-04-24T10:29:14;1.40;;;1.00;;
76053;SDS011;64752;48.870;9.082;2023-04-24T10:31:40;4.90;;;1.10;;
76053;SDS011;64752;48.870;9.082;2023-04-24T10:34:06;5.03;;;1.20;;
76053;SDS011;64752;48.870;9.082;2023-04-24T10:36:34;3.13;;;1.10;;
76053;SDS011;64752;48.870;9.082;2023-04-24T10:39:02;2.03;;;1.20;;
76053;SDS011;64752;48.870;9.082;2023-04-24T10:41:27;4.40;;;1.30;;
76053;SDS011;64752;48.870;9.082;2023-04-24T10:44:03;1.70;;;1.25;;
76053;SDS011;64752;48.870;9.082;2023-04-24T10:46:29;3.13;;;1.20;;
76053;SDS011;64752;48.870;9.082;2023-04-24T10:48:55;2.53;;;1.10;;
76053;SDS011;64752;48.870;9.082;2023-04-24T10:51:21;1.33;;;1.23;;
76053;SDS011;64752;48.870;9.082;2023-04-24T10:53:47;2.78;;;1.10;;
76053;SDS011;64752;48.870;9.082;2023-04-24T10:56:15;4.68;;;1.30;;
76053;SDS011;64752;48.870;9.082;2023-04-24T10:58:41;2.92;;;1.30;;
76053;SDS011;64752;48.870;9.082;2023-04-24T11:01:10;1.60;;;1.00;;
76053;SDS011;64752;48.870;9.082;2023-04-24T11:03:51;2.58;;;1.02;;
76053;SDS011;64752;48.870;9.082;2023-04-24T11:06:18;3.85;;;0.80;;
76053;SDS011;64752;48.870;9.082;2023-04-24T11:08:57;1.25;;;0.85;;
76053;SDS011;64752;48.870;9.082;2023-04-24T11:11:23;2.78;;;1.05;;
76053;SDS011;64752;48.870;9.082;2023-04-24T11:21:38;1.53;;;1.07;;
76053;SDS011;64752;48.870;9.082;2023-04-24T11:34:50;3.95;;;1.20;;
76053;SDS011;64752;48.870;9.082;2023-04-24T11:37:16;2.22;;;1.15;;
76053;SDS011;64752;48.870;9.082;2023-04-24T11:39:41;3.58;;;1.23;;
76053;SDS011;64752;48.870;9.082;2023-04-24T11:42:06;2.53;;;1.07;;
76053;SDS011;64752;48.870;9.082;2023-04-24T11:44:33;1.87;;;0.90;;
76053;SDS011;64752;48.870;9.082;2023-04-24T11:46:58;1.30;;;0.90;;
76053;SDS011;64752;48.870;9.082;2023-04-24T11:49:24;6.77;;;1.00;;
76053;SDS011;64752;48.870;9.082;2023-04-24T11:51:49;1.05;;;0.75;;
76053;SDS011;64752;48.870;9.082;2023-04-24T11:54:14;1.20;;;0.87;;
76053;SDS011;64752;48.870;9.082;2023-04-24T11:56:44;2.40;;;1.05;;
76053;SDS011;64752;48.870;9.082;2023-04-24T11:59:09;5.28;;;1.40;;
76053;SDS011;64752;48.870;9.082;2023-04-24T12:01:47;1.02;;;0.85;;
76053;SDS011;64752;48.870;9.082;2023-04-24T12:04:12;3.13;;;1.27;;
76053;SDS011;64752;48.870;9.082;2023-04-24T12:06:38;1.93;;;1.13;;
76053;SDS011;64752;48.870;9.082;2023-04-24T12:09:03;1.67;;;1.20;;
76053;SDS011;64752;48.870;9.082;2023-04-24T12:11:29;1.67;;;1.17;;
76053;SDS011;64752;48.870;9.082;2023-04-24T12:13:55;1.98;;;1.40;;
76053;SDS011;64752;48.870;9.082;2023-04-24T12:16:20;1.70;;;1.20;;
76053;SDS011;64752;48.870;9.082;2023-04-24T12:18:45;2.05;;;1.13;;
76053;SDS011;64752;48.870;9.082;2023-04-24T12:23:45;2.88;;;1.13;;
76053;SDS011;64752;48.870;9.082;2023-04-24T12:26:11;1.67;;;1.05;;
76053;SDS011;64752;48.870;9.082;2023-04-24T12:28:37;2.13;;;1.10;;
76053;SDS011;64752;48.870;9.082;2023-04-24T12:31:02;2.08;;;1.20;;
76053;SDS011;64752;48.870;9.082;2023-04-24T12:33:27;3.15;;;1.30;;
76053;SDS011;64752;48.870;9.082;2023-04-24T12:35:53;1.20;;;1.10;;
76053;SDS011;64752;48.870;9.082;2023-04-24T12:38:22;1.83;;;1.30;;
76053;SDS011;64752;48.870;9.082;2023-04-24T12:40:47;3.65;;;1.42;;
76053;SDS011;64752;48.870;9.082;2023-04-24T12:43:13;2.00;;;1.20;;
76053;SDS011;64752;48.870;9.082;2023-04-24T12:45:39;3.03;;;1.40;;
76053;SDS011;64752;48.870;9.082;2023-04-24T12:48:04;3.57;;;1.50;;
76053;SDS011;64752;48.870;9.082;2023-04-24T12:50:29;2.13;;;1.17;;
76053;SDS011;64752;48.870;9.082;2023-04-24T12:52:55;3.78;;;1.20;;
76053;SDS011;64752;48.870;9.082;2023-04-24T12:55:20;2.33;;;1.10;;
76053;SDS011;64752;48.870;9.082;2023-04-24T12:57:45;1.52;;;1.00;;
76053;SDS011;64752;48.870;9.082;2023-04-24T13:00:11;2.85;;;1.10;;
76053;SDS011;64752;48.870;9.082;2023-04-24T13:02:36;1.20;;;1.10;;
76053;SDS011;64752;48.870;9.082;2023-04-24T13:05:01;1.63;;;1.02;;
76053;SDS011;64752;48.870;9.082;2023-04-24T13:07:27;3.33;;;1.50;;
76053;SDS011;64752;48.870;9.082;2023-04-24T13:09:53;2.10;;;1.47;;
76053;SDS011;64752;48.870;9.082;2023-04-24T13:12:19;2.20;;;1.42;;
76053;SDS011;64752;48.870;9.082;2023-04-24T13:14:44;3.37;;;1.70;;
76053;SDS011;64752;48.870;9.082;2023-04-24T13:17:10;2.22;;;1.17;;
76053;SDS011;64752;48.870;9.082;2023-04-24T13:19:37;2.60;;;1.73;;
76053;SDS011;64752;48.870;9.082;2023-04-24T13:22:02;3.33;;;1.67;;
76053;SDS011;64752;48.870;9.082;2023-04-24T13:24:28;4.18;;;1.50;;
76053;SDS011;64752;48.870;9.082;2023-04-24T13:26:53;3.20;;;1.80;;
76053;SDS011;64752;48.870;9.082;2023-04-24T13:29:18;2.50;;;1.60;;
76053;SDS011;64752;48.870;9.082;2023-04-24T13:31:45;2.60;;;1.88;;
76053;SDS011;64752;48.870;9.082;2023-04-24T13:34:10;3.67;;;1.88;;
76053;SDS011;64752;48.870;9.082;2023-04-24T13:36:36;2.63;;;1.63;;
76053;SDS011;64752;48.870;9.082;2023-04-24T13:39:02;4.43;;;1.93;;
76053;SDS011;64752;48.870;9.082;2023-04-24T13:41:29;3.55;;;1.90;;
76053;SDS011;64752;48.870;9.082;2023-04-24T13:43:54;2.08;;;1.63;;
76053;SDS011;64752;48.870;9.082;2023-04-24T13:46:19;3.10;;;2.00;;
76053;SDS011;64752;48.870;9.082;2023-04-24T13:48:44;1.87;;;1.43;;
76053;SDS011;64752;48.870;9.082;2023-04-24T13:51:09;1.80;;;1.30;;
76053;SDS011;64752;48.870;9.082;2023-04-24T13:53:35;3.33;;;1.52;;
76053;SDS011;64752;48.870;9.082;2023-04-24T13:56:03;2.45;;;1.17;;
76053;SDS011;64752;48.870;9.082;2023-04-24T13:58:28;1.98;;;1.58;;
76053;SDS011;64752;48.870;9.082;2023-04-24T14:00:53;2.28;;;1.30;;
76053;SDS011;64752;48.870;9.082;2023-04-24T14:03:19;2.45;;;1.48;;
76053;SDS011;64752;48.870;9.082;2023-04-24T14:05:44;3.53;;;1.40;;
76053;SDS011;64752;48.870;9.082;2023-04-24T14:08:09;3.85;;;1.52;;
76053;SDS011;64752;48.870;9.082;2023-04-24T14:10:34;3.20;;;1.40;;
76053;SDS011;64752;48.870;9.082;2023-04-24T14:13:00;1.52;;;1.38;;
76053;SDS011;64752;48.870;9.082;2023-04-24T14:15:25;2.95;;;1.50;;
76053;SDS011;64752;48.870;9.082;2023-04-24T14:17:50;1.85;;;1.10;;
76053;SDS011;64752;48.870;9.082;2023-04-24T14:20:16;2.25;;;1.20;;
76053;SDS011;64752;48.870;9.082;2023-04-24T14:22:41;3.53;;;1.30;;
76053;SDS011;64752;48.870;9.082;2023-04-24T14:25:07;2.63;;;1.40;;
76053;SDS011;64752;48.870;9.082;2023-04-24T14:27:32;2.58;;;1.60;;
76053;SDS011;64752;48.870;9.082;2023-04-24T14:32:24;1.85;;;1.30;;
76053;SDS011;64752;48.870;9.082;2023-04-24T14:34:49;3.30;;;1.60;;
76053;SDS011;64752;48.870;9.082;2023-04-24T14:37:15;1.98;;;1.50;;
76053;SDS011;64752;48.870;9.082;2023-04-24T14:39:40;2.77;;;1.40;;
76053;SDS011;64752;48.870;9.082;2023-04-24T14:42:05;2.17;;;1.35;;
76053;SDS011;64752;48.870;9.082;2023-04-24T14:44:30;2.33;;;1.30;;
76053;SDS011;64752;48.870;9.082;2023-04-24T14:46:56;2.45;;;1.48;;
76053;SDS011;64752;48.870;9.082;2023-04-24T14:49:22;2.23;;;1.40;;
76053;SDS011;64752;48.870;9.082;2023-04-24T14:51:48;3.03;;;1.57;;
76053;SDS011;64752;48.870;9.082;2023-04-24T14:54:13;2.65;;;1.20;;
76053;SDS011;64752;48.870;9.082;2023-04-24T14:56:38;1.70;;;1.17;;
76053;SDS011;64752;48.870;9.082;2023-04-24T14:59:05;3.53;;;1.40;;
76053;SDS011;64752;48.870;9.082;2023-04-24T15:01:31;2.17;;;1.17;;
76053;SDS011;64752;48.870;9.082;2023-04-24T15:03:57;1.90;;;1.23;;
76053;SDS011;64752;48.870;9.082;2023-04-24T15:06:22;1.77;;;1.40;;